Time;durP1;ratioP1;P1;durP2;ratioP2;P2;SDS_P1;SDS_P2;PMS_P1;PMS_P2;Temp;Humidity;BMP_temperature;BMP_pressure;BME280_temperature;BME280_humidity;BME280_pressure;Samples;Min_cycle;Max_cycle;Signal;HPM_P1;HPM_P2
2023/07/18 00:02:01;;;;;;;7.10;3.90;;;;;;;;;;5002880;28;20213;-73
2023/07/18 00:05:07;;;;;;;5.77;3.57;;;;;;;;;;5014355;28;20178;-74
2023/07/18 00:08:11;;;;;;;5.50;3.57;;;;;;;;;;5014494;28;20205;-73
2023/07/18 00:11:15;;;;;;;9.50;3.57;;;;;;;;;;5002151;28;20213;-73
2023/07/18 00:14:23;;;;;;;5.40;3.63;;;;;;;;;;5015464;28;20208;-73
2023/07/18 00:17:28;;;;;;;7.27;3.50;;;;;;;;;;4981557;28;20214;-73
2023/07/18 00:20:32;;;;;;;7.73;3.83;;;;;;;;;;4994442;28;20183;-74
2023/07/18 00:23:36;;;;;;;3.77;3.30;;;;;;;;;;4994459;28;20182;-73
2023/07/18 00:26:40;;;;;;;5.67;3.40;;;;;;;;;;4994696;28;20191;-74
2023/07/18 00:29:44;;;;;;;5.47;3.50;;;;;;;;;;4982608;28;20198;-73
2023/07/18 00:32:49;;;;;;;6.57;3.73;;;;;;;;;;4994321;28;20526;-73
2023/07/18 00:35:54;;;;;;;5.50;3.67;;;;;;;;;;4993461;28;20191;-73
2023/07/18 00:38:58;;;;;;;4.93;3.30;;;;;;;;;;4994249;28;20186;-72
2023/07/18 00:42:02;;;;;;;7.60;3.80;;;;;;;;;;4982434;28;20221;-74
2023/07/18 00:45:08;;;;;;;6.30;4.03;;;;;;;;;;4994881;28;20173;-73
2023/07/18 00:48:12;;;;;;;5.20;3.57;;;;;;;;;;4993471;28;20182;-74
2023/07/18 00:51:16;;;;;;;7.53;3.50;;;;;;;;;;4993338;28;20218;-74
2023/07/18 00:54:20;;;;;;;4.67;3.10;;;;;;;;;;4993454;28;20186;-74
2023/07/18 00:57:25;;;;;;;7.93;4.00;;;;;;;;;;4994182;28;20186;-74
2023/07/18 01:00:29;;;;;;;7.50;3.70;;;;;;;;;;4993037;28;20178;-74
2023/07/18 01:03:34;;;;;;;5.70;3.50;;;;;;;;;;4993309;28;20182;-74
2023/07/18 01:06:39;;;;;;;6.03;3.20;;;;;;;;;;4994121;28;20182;-74
2023/07/18 01:09:44;;;;;;;6.40;3.20;;;;;;;;;;4993465;28;20202;-74
2023/07/18 01:12:50;;;;;;;8.90;3.77;;;;;;;;;;4982063;28;20187;-74
2023/07/18 01:15:54;;;;;;;4.57;3.20;;;;;;;;;;4992558;28;20209;-72
2023/07/18 01:18:57;;;;;;;5.50;3.40;;;;;;;;;;4982262;28;20182;-73
2023/07/18 01:22:02;;;;;;;4.40;2.97;;;;;;;;;;4992768;28;20235;-72
2023/07/18 01:25:11;;;;;;;5.53;3.37;;;;;;;;;;4982194;28;20202;-74
2023/07/18 01:28:16;;;;;;;5.53;3.40;;;;;;;;;;4992962;28;20206;-74
2023/07/18 01:31:21;;;;;;;5.53;3.43;;;;;;;;;;4993244;28;20225;-72
2023/07/18 01:34:24;;;;;;;6.30;3.53;;;;;;;;;;4981819;28;20182;-74
2023/07/18 01:37:28;;;;;;;7.37;3.77;;;;;;;;;;4993032;28;20186;-74
2023/07/18 01:40:33;;;;;;;6.33;3.40;;;;;;;;;;4993113;28;20178;-74
2023/07/18 01:43:37;;;;;;;5.53;3.40;;;;;;;;;;4993607;28;20182;-72
2023/07/18 01:46:41;;;;;;;5.10;3.40;;;;;;;;;;4992969;28;20182;-73
2023/07/18 01:49:45;;;;;;;7.73;3.87;;;;;;;;;;4992925;28;20677;-74
2023/07/18 01:52:49;;;;;;;4.60;3.43;;;;;;;;;;4992952;28;20190;-72
2023/07/18 01:55:54;;;;;;;7.53;3.87;;;;;;;;;;4993373;28;20182;-72
2023/07/18 01:58:59;;;;;;;8.13;3.63;;;;;;;;;;4992564;28;20178;-74
2023/07/18 02:02:06;;;;;;;5.47;3.40;;;;;;;;;;4992548;28;20226;-72
2023/07/18 02:05:10;;;;;;;5.00;3.37;;;;;;;;;;4981503;28;20179;-74
2023/07/18 02:08:14;;;;;;;5.00;3.17;;;;;;;;;;4993046;28;20178;-73
2023/07/18 02:11:18;;;;;;;7.83;3.47;;;;;;;;;;4992983;28;20210;-74
2023/07/18 02:14:22;;;;;;;5.90;3.67;;;;;;;;;;4992590;28;20186;-74
2023/07/18 02:17:26;;;;;;;5.73;3.43;;;;;;;;;;4993200;28;20526;-74
2023/07/18 02:20:30;;;;;;;7.03;3.80;;;;;;;;;;4993643;28;20174;-74
2023/07/18 02:23:34;;;;;;;5.27;3.60;;;;;;;;;;4981690;28;20186;-74
2023/07/18 02:26:38;;;;;;;7.17;3.77;;;;;;;;;;4993228;28;20182;-73
2023/07/18 02:29:42;;;;;;;7.03;3.33;;;;;;;;;;4995733;28;20676;-74
2023/07/18 02:32:47;;;;;;;5.47;3.40;;;;;;;;;;4996532;28;20190;-72
2023/07/18 02:35:51;;;;;;;5.17;3.33;;;;;;;;;;4995922;28;20249;-73
2023/07/18 02:38:55;;;;;;;5.03;3.60;;;;;;;;;;4995586;28;20202;-74
2023/07/18 02:42:00;;;;;;;5.23;3.40;;;;;;;;;;4996857;28;20221;-72
2023/07/18 02:45:06;;;;;;;8.03;3.90;;;;;;;;;;4984801;28;20193;-73
2023/07/18 02:48:10;;;;;;;5.33;3.97;;;;;;;;;;4995468;28;20198;-74
2023/07/18 02:51:14;;;;;;;7.50;3.53;;;;;;;;;;4995562;28;20214;-73
2023/07/18 02:54:19;;;;;;;8.17;3.90;;;;;;;;;;4995644;28;20657;-74
2023/07/18 02:57:23;;;;;;;7.23;3.60;;;;;;;;;;4995239;28;20201;-73
2023/07/18 03:00:28;;;;;;;5.90;3.50;;;;;;;;;;4984082;28;20178;-74
2023/07/18 03:03:34;;;;;;;6.37;3.57;;;;;;;;;;4984274;28;20183;-74
2023/07/18 03:06:38;;;;;;;6.03;3.70;;;;;;;;;;4995094;28;20530;-74
2023/07/18 03:09:42;;;;;;;9.67;4.00;;;;;;;;;;4996370;28;20217;-74
2023/07/18 03:12:46;;;;;;;6.30;3.00;;;;;;;;;;4995488;28;20190;-73
2023/07/18 03:15:50;;;;;;;4.37;3.13;;;;;;;;;;4994744;28;20206;-72
2023/07/18 03:18:54;;;;;;;6.87;3.27;;;;;;;;;;4995414;28;20186;-72
2023/07/18 03:21:59;;;;;;;3.70;2.70;;;;;;;;;;4995523;28;20217;-72
2023/07/18 03:25:07;;;;;;;5.87;3.27;;;;;;;;;;4995029;28;20178;-73
2023/07/18 03:28:11;;;;;;;4.37;2.80;;;;;;;;;;4984034;28;20182;-72
2023/07/18 03:31:15;;;;;;;6.27;3.40;;;;;;;;;;4972568;28;20210;-74
2023/07/18 03:34:19;;;;;;;5.10;2.93;;;;;;;;;;4995659;28;20650;-73
2023/07/18 03:37:25;;;;;;;4.27;3.23;;;;;;;;;;4994393;28;20190;-73
2023/07/18 03:40:29;;;;;;;6.40;3.43;;;;;;;;;;4995421;28;20202;-73
2023/07/18 03:43:34;;;;;;;6.23;3.40;;;;;;;;;;4994644;28;20201;-73
2023/07/18 03:46:38;;;;;;;6.47;3.40;;;;;;;;;;4994873;28;20174;-74
2023/07/18 03:49:42;;;;;;;6.73;3.80;;;;;;;;;;4994413;28;20213;-74
2023/07/18 03:52:46;;;;;;;6.20;3.50;;;;;;;;;;4995572;28;20190;-74
2023/07/18 03:55:51;;;;;;;7.50;4.07;;;;;;;;;;4994493;28;20186;-73
2023/07/18 03:58:56;;;;;;;7.60;3.73;;;;;;;;;;4994936;28;20182;-74
2023/07/18 04:01:59;;;;;;;5.57;3.30;;;;;;;;;;4995116;28;20557;-73
2023/07/18 04:05:04;;;;;;;4.20;3.30;;;;;;;;;;4994941;28;20190;-74
2023/07/18 04:08:08;;;;;;;6.73;3.80;;;;;;;;;;4994743;28;20182;-74
2023/07/18 04:11:13;;;;;;;9.60;3.17;;;;;;;;;;4995108;28;20229;-73
2023/07/18 04:14:17;;;;;;;5.77;3.20;;;;;;;;;;4975184;28;20191;-74
2023/07/18 04:17:22;;;;;;;5.50;3.33;;;;;;;;;;4975467;28;20183;-72
2023/07/18 04:20:27;;;;;;;8.13;3.63;;;;;;;;;;4974683;28;20183;-74
2023/07/18 04:23:31;;;;;;;4.83;3.17;;;;;;;;;;4975320;28;20187;-72
2023/07/18 04:26:35;;;;;;;7.37;3.50;;;;;;;;;;4975364;28;20539;-73
2023/07/18 04:29:40;;;;;;;5.90;3.70;;;;;;;;;;4975177;28;20219;-73
2023/07/18 04:32:46;;;;;;;39.20;11.43;;;;;;;;;;4975398;28;20230;-73
2023/07/18 04:35:50;;;;;;;8.77;4.00;;;;;;;;;;4975144;28;20190;-73
2023/07/18 04:38:54;;;;;;;9.10;3.97;;;;;;;;;;4975111;28;20519;-73
2023/07/18 04:41:59;;;;;;;5.63;3.70;;;;;;;;;;4973928;28;20218;-73
2023/07/18 04:45:06;;;;;;;7.63;3.60;;;;;;;;;;4974462;28;20175;-74
2023/07/18 04:48:15;;;;;;;6.13;3.53;;;;;;;;;;4974603;28;20179;-73
2023/07/18 04:51:20;;;;;;;6.30;4.10;;;;;;;;;;4983579;28;20221;-73
2023/07/18 04:54:24;;;;;;;5.83;4.00;;;;;;;;;;4982283;28;20661;-73
2023/07/18 04:57:28;;;;;;;4.33;3.53;;;;;;;;;;4991554;28;20653;-73
2023/07/18 05:00:33;;;;;;;6.83;3.70;;;;;;;;;;4974640;28;20183;-73
2023/07/18 05:03:38;;;;;;;7.80;3.80;;;;;;;;;;4974991;28;20186;-73
2023/07/18 05:06:42;;;;;;;5.30;3.40;;;;;;;;;;4975251;28;20183;-73
2023/07/18 05:09:46;;;;;;;5.67;3.53;;;;;;;;;;4985432;28;20207;-73
2023/07/18 05:12:55;;;;;;;5.67;3.40;;;;;;;;;;4974905;28;20183;-73
2023/07/18 05:16:00;;;;;;;9.47;3.67;;;;;;;;;;4974390;28;20666;-73
2023/07/18 05:19:04;;;;;;;4.63;3.30;;;;;;;;;;4985210;28;20183;-72
2023/07/18 05:22:08;;;;;;;8.13;3.87;;;;;;;;;;4974275;28;20226;-74
2023/07/18 05:25:14;;;;;;;4.80;3.30;;;;;;;;;;4973696;28;20559;-73
2023/07/18 05:28:18;;;;;;;8.20;3.73;;;;;;;;;;4973934;28;20183;-74
2023/07/18 05:31:22;;;;;;;6.13;3.73;;;;;;;;;;4973732;28;20230;-74
2023/07/18 05:34:27;;;;;;;8.50;3.97;;;;;;;;;;4974362;28;20550;-74
2023/07/18 05:37:31;;;;;;;6.47;4.10;;;;;;;;;;4974375;28;20179;-73
2023/07/18 05:40:35;;;;;;;8.00;3.97;;;;;;;;;;4973945;28;20195;-74
2023/07/18 05:43:40;;;;;;;5.90;4.00;;;;;;;;;;4974453;28;20203;-74
2023/07/18 05:46:44;;;;;;;5.53;3.30;;;;;;;;;;4962125;28;20194;-73
2023/07/18 05:49:49;;;;;;;5.33;3.70;;;;;;;;;;4973149;28;20210;-73
2023/07/18 05:52:54;;;;;;;5.77;3.70;;;;;;;;;;4973521;28;20214;-74
2023/07/18 05:55:58;;;;;;;7.63;3.90;;;;;;;;;;4974727;28;20186;-73
2023/07/18 05:59:05;;;;;;;9.30;3.50;;;;;;;;;;4974285;28;20179;-73
2023/07/18 06:02:09;;;;;;;6.33;4.07;;;;;;;;;;4975923;28;20210;-73
2023/07/18 06:05:14;;;;;;;6.03;3.87;;;;;;;;;;4976973;28;20179;-74
2023/07/18 06:08:18;;;;;;;4.93;3.20;;;;;;;;;;4977752;28;20646;-74
2023/07/18 06:11:22;;;;;;;7.87;3.50;;;;;;;;;;4995903;28;20222;-73
2023/07/18 06:14:26;;;;;;;11.37;3.83;;;;;;;;;;4995721;28;20205;-74
2023/07/18 06:17:30;;;;;;;13.03;3.60;;;;;;;;;;4996982;28;20182;-74
2023/07/18 06:20:34;;;;;;;10.50;4.43;;;;;;;;;;4995752;28;20542;-73
2023/07/18 06:23:38;;;;;;;6.63;3.90;;;;;;;;;;4995691;28;20213;-74
2023/07/18 06:26:48;;;;;;;5.13;3.73;;;;;;;;;;4996925;28;20653;-74
2023/07/18 06:29:54;;;;;;;6.57;3.63;;;;;;;;;;4996753;28;20198;-73
2023/07/18 06:32:59;;;;;;;6.70;3.50;;;;;;;;;;4996568;28;20201;-73
2023/07/18 06:36:03;;;;;;;10.43;3.70;;;;;;;;;;4995768;28;20542;-73
2023/07/18 06:39:07;;;;;;;7.03;3.53;;;;;;;;;;5026805;22;20901;-72
2023/07/18 06:42:11;;;;;;;4.10;3.13;;;;;;;;;;5016315;28;20217;-72
2023/07/18 06:45:15;;;;;;;6.20;3.67;;;;;;;;;;5015859;28;20548;-72
2023/07/18 06:48:19;;;;;;;6.77;3.67;;;;;;;;;;5015937;28;20556;-72
2023/07/18 06:51:24;;;;;;;5.33;3.10;;;;;;;;;;5016248;28;20232;-72
2023/07/18 06:54:27;;;;;;;4.60;3.10;;;;;;;;;;5016113;28;20636;-72
2023/07/18 06:57:32;;;;;;;7.57;3.27;;;;;;;;;;5015726;28;20181;-73
2023/07/18 07:00:38;;;;;;;7.63;3.80;;;;;;;;;;5015906;28;20173;-73
2023/07/18 07:03:41;;;;;;;4.20;3.47;;;;;;;;;;5015593;28;20189;-72
2023/07/18 07:06:46;;;;;;;8.07;3.40;;;;;;;;;;5003904;28;20612;-72
2023/07/18 07:09:50;;;;;;;7.83;3.67;;;;;;;;;;5003847;28;20178;-73
2023/07/18 07:12:54;;;;;;;5.60;3.17;;;;;;;;;;5002624;28;20178;-72
2023/07/18 07:15:58;;;;;;;7.77;3.20;;;;;;;;;;5003278;28;20521;-72
2023/07/18 07:19:04;;;;;;;7.50;3.00;;;;;;;;;;5003497;28;20173;-72
2023/07/18 07:22:11;;;;;;;7.27;3.20;;;;;;;;;;5015124;28;20209;-73
2023/07/18 07:25:15;;;;;;;4.73;3.07;;;;;;;;;;5003636;28;20182;-73
2023/07/18 07:28:22;;;;;;;6.90;3.20;;;;;;;;;;5015150;28;20178;-72
2023/07/18 07:31:27;;;;;;;6.30;3.20;;;;;;;;;;5015162;28;20703;-73
2023/07/18 07:34:31;;;;;;;7.37;3.00;;;;;;;;;;5003374;28;20180;-73
2023/07/18 07:37:36;;;;;;;4.23;3.13;;;;;;;;;;5015433;28;20184;-73
2023/07/18 07:40:40;;;;;;;4.93;2.67;;;;;;;;;;5015116;28;20177;-73
2023/07/18 07:43:44;;;;;;;3.97;2.47;;;;;;;;;;5015068;28;20182;-72
2023/07/18 07:46:48;;;;;;;3.83;2.42;;;;;;;;;;5015047;28;20179;-73
2023/07/18 07:49:52;;;;;;;4.13;2.38;;;;;;;;;;5002834;28;20638;-73
2023/07/18 07:52:56;;;;;;;5.32;2.35;;;;;;;;;;4991707;28;20517;-73
2023/07/18 07:56:01;;;;;;;3.90;2.42;;;;;;;;;;5002872;28;20180;-73
2023/07/18 07:59:05;;;;;;;5.60;2.58;;;;;;;;;;5002411;28;20184;-73
2023/07/18 08:02:09;;;;;;;7.18;2.58;;;;;;;;;;5014347;28;20208;-72
2023/07/18 08:05:13;;;;;;;7.20;3.13;;;;;;;;;;5014542;28;20201;-73
2023/07/18 08:08:17;;;;;;;4.90;2.13;;;;;;;;;;5014575;28;20195;-73
2023/07/18 08:11:22;;;;;;;2.92;2.08;;;;;;;;;;5013772;28;20233;-72
2023/07/18 08:14:25;;;;;;;5.40;2.33;;;;;;;;;;5013287;28;20183;-73
2023/07/18 08:17:29;;;;;;;4.70;2.33;;;;;;;;;;5002433;28;20181;-74
2023/07/18 08:20:34;;;;;;;5.40;2.60;;;;;;;;;;5002135;28;20177;-73
2023/07/18 08:23:38;;;;;;;6.03;2.50;;;;;;;;;;5002063;28;20186;-74
2023/07/18 08:26:42;;;;;;;5.80;2.67;;;;;;;;;;5014323;28;20563;-74
2023/07/18 08:29:46;;;;;;;5.55;3.05;;;;;;;;;;5014322;28;20541;-73
2023/07/18 08:32:50;;;;;;;8.30;2.38;;;;;;;;;;5014548;28;20177;-73
2023/07/18 08:35:54;;;;;;;4.60;2.60;;;;;;;;;;5001891;28;20182;-73
2023/07/18 08:38:58;;;;;;;5.65;2.10;;;;;;;;;;5013959;28;20205;-74
2023/07/18 08:42:06;;;;;;;4.35;2.63;;;;;;;;;;5014093;28;20210;-74
2023/07/18 08:45:13;;;;;;;6.13;2.72;;;;;;;;;;5001964;28;20178;-74
2023/07/18 08:48:18;;;;;;;8.10;2.63;;;;;;;;;;5001975;28;20186;-74
2023/07/18 08:51:23;;;;;;;6.57;2.58;;;;;;;;;;5013938;28;20704;-73
2023/07/18 08:54:27;;;;;;;3.80;2.03;;;;;;;;;;5005963;28;20203;-73
2023/07/18 08:57:33;;;;;;;4.72;2.65;;;;;;;;;;5009128;28;20233;-73
2023/07/18 09:00:38;;;;;;;7.13;2.30;;;;;;;;;;5001685;28;20178;-74
2023/07/18 09:03:42;;;;;;;5.53;2.55;;;;;;;;;;5014114;28;20182;-74
2023/07/18 09:06:47;;;;;;;3.60;2.10;;;;;;;;;;5013516;28;20185;-73
2023/07/18 09:09:52;;;;;;;7.30;2.50;;;;;;;;;;5013591;28;20190;-74
2023/07/18 09:13:02;;;;;;;5.28;2.30;;;;;;;;;;5013447;28;20629;-73
2023/07/18 09:16:13;;;;;;;6.03;2.33;;;;;;;;;;4990052;28;20177;-73
2023/07/18 09:19:17;;;;;;;6.78;2.80;;;;;;;;;;5001606;28;20637;-74
2023/07/18 09:22:21;;;;;;;5.43;2.40;;;;;;;;;;5001655;28;20209;-73
2023/07/18 09:25:26;;;;;;;6.00;2.22;;;;;;;;;;5000930;28;20201;-73
2023/07/18 09:28:31;;;;;;;3.53;2.75;;;;;;;;;;4993757;28;20629;-73
2023/07/18 09:31:37;;;;;;;6.18;2.88;;;;;;;;;;4993547;28;20685;-73
2023/07/18 09:34:53;;;;;;;4.15;2.67;;;;;;;;;;4981512;28;20194;-74
2023/07/18 09:37:58;;;;;;;6.50;2.80;;;;;;;;;;4997461;28;20202;-74
2023/07/18 09:41:03;;;;;;;6.40;2.88;;;;;;;;;;4997432;28;20222;-73
2023/07/18 09:44:08;;;;;;;4.43;2.67;;;;;;;;;;4997849;28;20517;-73
2023/07/18 09:47:13;;;;;;;4.82;2.45;;;;;;;;;;4997156;28;20175;-74
2023/07/18 09:50:17;;;;;;;5.32;3.10;;;;;;;;;;4997155;28;20198;-73
2023/07/18 09:53:23;;;;;;;9.50;2.90;;;;;;;;;;4986167;28;20186;-73
2023/07/18 09:56:30;;;;;;;3.92;2.67;;;;;;;;;;4974677;28;20206;-72
2023/07/18 09:59:37;;;;;;;4.85;3.28;;;;;;;;;;4997338;28;20211;-73
2023/07/18 10:02:42;;;;;;;4.43;2.47;;;;;;;;;;4996946;28;20214;-74
2023/07/18 10:05:47;;;;;;;6.25;3.20;;;;;;;;;;4997227;28;20183;-73
2023/07/18 10:08:53;;;;;;;5.97;3.30;;;;;;;;;;4985315;28;20187;-74
2023/07/18 10:11:57;;;;;;;9.68;3.45;;;;;;;;;;5014568;28;20237;-73
2023/07/18 10:15:03;;;;;;;4.30;3.25;;;;;;;;;;5016720;28;20181;-74
2023/07/18 10:18:15;;;;;;;5.35;3.42;;;;;;;;;;5016745;28;20186;-74
2023/07/18 10:21:35;;;;;;;5.05;3.00;;;;;;;;;;5016351;28;20218;-74
2023/07/18 10:24:48;;;;;;;7.30;3.05;;;;;;;;;;5004557;28;20194;-74
2023/07/18 10:27:53;;;;;;;6.15;2.97;;;;;;;;;;4993471;28;20182;-74
2023/07/18 10:30:57;;;;;;;3.78;2.70;;;;;;;;;;4993222;28;20213;-74
2023/07/18 10:34:09;;;;;;;6.70;3.20;;;;;;;;;;5016166;28;20178;-74
2023/07/18 10:37:14;;;;;;;4.40;2.78;;;;;;;;;;5016659;28;20518;-73
2023/07/18 10:40:39;;;;;;;4.38;3.03;;;;;;;;;;5016645;28;20178;-73
2023/07/18 10:43:47;;;;;;;5.55;3.13;;;;;;;;;;5004310;28;20174;-74
2023/07/18 10:46:51;;;;;;;6.10;3.03;;;;;;;;;;5003775;28;20182;-74
2023/07/18 10:49:56;;;;;;;4.70;2.90;;;;;;;;;;5015945;28;20178;-73
2023/07/18 10:53:01;;;;;;;5.22;2.95;;;;;;;;;;5015781;28;20222;-74
2023/07/18 10:56:05;;;;;;;3.08;2.58;;;;;;;;;;5016092;28;20517;-74
2023/07/18 10:59:12;;;;;;;6.75;2.75;;;;;;;;;;5003852;28;20190;-74
2023/07/18 11:02:17;;;;;;;4.78;2.97;;;;;;;;;;5015938;28;20209;-74
2023/07/18 11:05:25;;;;;;;8.23;3.42;;;;;;;;;;5003523;28;20201;-74
2023/07/18 11:08:30;;;;;;;9.80;3.78;;;;;;;;;;5015347;28;20178;-73
2023/07/18 11:11:37;;;;;;;4.55;3.10;;;;;;;;;;5015359;28;20221;-74
2023/07/18 11:14:41;;;;;;;8.68;3.75;;;;;;;;;;5003223;28;20178;-74
2023/07/18 11:17:45;;;;;;;4.72;2.92;;;;;;;;;;5003682;28;20617;-74
2023/07/18 11:20:52;;;;;;;6.80;3.20;;;;;;;;;;5003393;28;20684;-74
2023/07/18 11:23:56;;;;;;;4.78;3.10;;;;;;;;;;5015635;28;20629;-75
2023/07/18 11:27:31;;;;;;;8.57;3.25;;;;;;;;;;5003516;28;20617;-74
2023/07/18 11:30:35;;;;;;;3.50;2.80;;;;;;;;;;5015211;28;20181;-74
2023/07/18 11:33:39;;;;;;;5.40;3.03;;;;;;;;;;5015221;28;20186;-73
2023/07/18 11:36:43;;;;;;;6.55;3.28;;;;;;;;;;4991914;28;20645;-74
2023/07/18 11:39:47;;;;;;;5.22;3.00;;;;;;;;;;5003063;28;20182;-74
2023/07/18 11:42:53;;;;;;;5.38;3.08;;;;;;;;;;5014751;28;20174;-74
2023/07/18 11:45:58;;;;;;;5.65;3.50;;;;;;;;;;5015206;28;20174;-74
2023/07/18 11:49:03;;;;;;;5.65;3.08;;;;;;;;;;5002509;28;20202;-73
2023/07/18 11:52:08;;;;;;;3.88;3.00;;;;;;;;;;5014713;28;20221;-73
2023/07/18 11:55:14;;;;;;;4.55;2.78;;;;;;;;;;5014817;28;20617;-74
2023/07/18 11:58:18;;;;;;;5.32;3.22;;;;;;;;;;5014164;28;20193;-74
2023/07/18 12:01:23;;;;;;;5.40;2.78;;;;;;;;;;5014604;28;20700;-73
2023/07/18 12:04:27;;;;;;;5.53;3.40;;;;;;;;;;5002702;28;20178;-74
2023/07/18 12:07:34;;;;;;;5.60;3.05;;;;;;;;;;5014305;28;20182;-73
2023/07/18 12:10:38;;;;;;;4.88;3.03;;;;;;;;;;5014182;28;20516;-74
2023/07/18 12:13:43;;;;;;;5.05;2.78;;;;;;;;;;5014681;28;20209;-74
2023/07/18 12:16:47;;;;;;;6.90;3.53;;;;;;;;;;5014212;28;20182;-74
2023/07/18 12:19:51;;;;;;;5.25;3.40;;;;;;;;;;5002421;28;20173;-73
2023/07/18 12:22:56;;;;;;;4.40;3.45;;;;;;;;;;5002164;28;20197;-73
2023/07/18 12:26:00;;;;;;;3.20;2.75;;;;;;;;;;5014050;28;20637;-74
2023/07/18 12:29:05;;;;;;;3.67;3.20;;;;;;;;;;5002097;28;20636;-74
2023/07/18 12:32:12;;;;;;;7.93;3.00;;;;;;;;;;5014022;28;20672;-74
2023/07/18 12:35:16;;;;;;;6.25;3.30;;;;;;;;;;5013928;28;20182;-73
2023/07/18 12:38:20;;;;;;;6.28;3.00;;;;;;;;;;5001771;28;20201;-73
2023/07/18 12:41:24;;;;;;;8.75;2.95;;;;;;;;;;5011664;22;20237;-73
2023/07/18 12:44:40;;;;;;;5.55;3.22;;;;;;;;;;4971563;28;20175;-71
2023/07/18 12:47:44;;;;;;;4.53;3.08;;;;;;;;;;4982279;28;20185;-72
2023/07/18 12:50:48;;;;;;;7.60;3.60;;;;;;;;;;4994271;28;20226;-72
2023/07/18 12:53:53;;;;;;;6.35;3.20;;;;;;;;;;4993843;28;20210;-72
2023/07/18 12:56:59;;;;;;;6.65;3.05;;;;;;;;;;4982325;28;20535;-72
2023/07/18 13:00:05;;;;;;;3.90;3.03;;;;;;;;;;4994177;28;20185;-72
2023/07/18 13:03:09;;;;;;;6.10;3.50;;;;;;;;;;4981873;28;20637;-73
2023/07/18 13:06:13;;;;;;;4.95;3.75;;;;;;;;;;4982075;28;20200;-72
2023/07/18 13:09:17;;;;;;;4.22;3.22;;;;;;;;;;4981881;28;20197;-73
2023/07/18 13:12:21;;;;;;;7.25;3.80;;;;;;;;;;4993581;28;20229;-73
2023/07/18 13:15:25;;;;;;;5.35;3.72;;;;;;;;;;4994116;28;20631;-73
2023/07/18 13:18:29;;;;;;;6.43;3.90;;;;;;;;;;4994022;28;20185;-73
2023/07/18 13:21:34;;;;;;;5.22;3.53;;;;;;;;;;4993644;28;20217;-73
2023/07/18 13:24:39;;;;;;;4.45;3.50;;;;;;;;;;4994265;28;20171;-73
2023/07/18 13:27:43;;;;;;;6.65;3.72;;;;;;;;;;4993888;28;20636;-72
2023/07/18 13:30:47;;;;;;;6.43;3.33;;;;;;;;;;4971037;28;20225;-72
2023/07/18 13:33:51;;;;;;;7.35;3.78;;;;;;;;;;4994081;28;20214;-72
2023/07/18 13:36:55;;;;;;;7.00;3.10;;;;;;;;;;4993864;28;20186;-72
2023/07/18 13:39:59;;;;;;;7.53;3.70;;;;;;;;;;4981835;28;20212;-72
2023/07/18 13:43:04;;;;;;;4.53;3.42;;;;;;;;;;4981525;28;20200;-72
2023/07/18 13:46:09;;;;;;;6.47;3.83;;;;;;;;;;4993574;28;20672;-72
2023/07/18 13:49:14;;;;;;;4.43;3.60;;;;;;;;;;4994254;28;20184;-72
2023/07/18 13:52:20;;;;;;;7.70;3.80;;;;;;;;;;4993209;28;20233;-72
2023/07/18 13:55:25;;;;;;;5.50;3.50;;;;;;;;;;4982021;28;20182;-72
2023/07/18 13:58:29;;;;;;;5.28;3.80;;;;;;;;;;4981674;28;20644;-72
2023/07/18 14:01:33;;;;;;;6.45;3.70;;;;;;;;;;4993962;28;20218;-72
2023/07/18 14:04:38;;;;;;;5.38;3.70;;;;;;;;;;4993563;28;20167;-73
2023/07/18 14:07:42;;;;;;;5.45;3.53;;;;;;;;;;4993863;28;20178;-73
2023/07/18 14:10:46;;;;;;;9.57;3.70;;;;;;;;;;4981420;28;20218;-73
2023/07/18 14:13:50;;;;;;;4.43;3.50;;;;;;;;;;4993589;28;20226;-72
2023/07/18 14:16:54;;;;;;;5.55;3.80;;;;;;;;;;4993264;28;20183;-73
2023/07/18 14:19:58;;;;;;;5.57;3.90;;;;;;;;;;4981684;28;20182;-72
2023/07/18 14:23:02;;;;;;;5.75;3.72;;;;;;;;;;4983755;28;20182;-72
2023/07/18 14:26:08;;;;;;;8.35;3.75;;;;;;;;;;4985061;28;20183;-73
2023/07/18 14:29:12;;;;;;;4.60;3.83;;;;;;;;;;4985210;28;20517;-73
2023/07/18 14:32:16;;;;;;;5.95;3.80;;;;;;;;;;4996559;28;20222;-72
2023/07/18 14:35:21;;;;;;;4.25;3.40;;;;;;;;;;4996855;28;20182;-73
2023/07/18 14:38:25;;;;;;;4.78;3.55;;;;;;;;;;4997110;28;20182;-73
2023/07/18 14:41:29;;;;;;;4.53;3.45;;;;;;;;;;4996972;28;20226;-73
2023/07/18 14:44:37;;;;;;;7.80;3.65;;;;;;;;;;4996701;28;20194;-73
2023/07/18 14:47:41;;;;;;;5.10;3.55;;;;;;;;;;4996658;28;20179;-73
2023/07/18 14:50:45;;;;;;;5.40;3.50;;;;;;;;;;4996498;28;20589;-72
2023/07/18 14:53:49;;;;;;;4.13;3.65;;;;;;;;;;4996221;28;20210;-73
2023/07/18 14:56:53;;;;;;;4.88;3.35;;;;;;;;;;4984270;28;20544;-73
2023/07/18 14:59:58;;;;;;;6.57;3.25;;;;;;;;;;4996139;28;20522;-72
2023/07/18 15:03:03;;;;;;;4.13;3.42;;;;;;;;;;4984649;28;20178;-73
2023/07/18 15:06:07;;;;;;;5.72;3.38;;;;;;;;;;4995891;28;20179;-73
2023/07/18 15:09:11;;;;;;;5.00;3.45;;;;;;;;;;4996134;28;20182;-72
2023/07/18 15:12:15;;;;;;;4.70;3.47;;;;;;;;;;4996072;28;20218;-72
2023/07/18 15:15:19;;;;;;;6.18;3.30;;;;;;;;;;4995728;28;20179;-72
2023/07/18 15:18:24;;;;;;;5.22;3.30;;;;;;;;;;4996216;28;20512;-73
2023/07/18 15:21:28;;;;;;;8.45;3.78;;;;;;;;;;4983889;28;20548;-73
2023/07/18 15:24:32;;;;;;;7.47;3.78;;;;;;;;;;4995835;28;20171;-73
2023/07/18 15:27:38;;;;;;;5.10;3.65;;;;;;;;;;4995716;28;20183;-73
2023/07/18 15:30:42;;;;;;;6.15;3.67;;;;;;;;;;4995925;28;20218;-73
2023/07/18 15:33:47;;;;;;;5.78;3.35;;;;;;;;;;4994679;28;20210;-73
2023/07/18 15:36:51;;;;;;;6.75;3.55;;;;;;;;;;4995907;28;20186;-73
2023/07/18 15:39:55;;;;;;;7.00;3.35;;;;;;;;;;4995590;28;20206;-73
2023/07/18 15:43:00;;;;;;;4.03;3.60;;;;;;;;;;4983499;28;20515;-73
2023/07/18 15:46:04;;;;;;;5.05;3.47;;;;;;;;;;4995182;28;20182;-72
2023/07/18 15:49:08;;;;;;;5.03;3.35;;;;;;;;;;4995373;28;20179;-72
2023/07/18 15:52:12;;;;;;;7.53;3.33;;;;;;;;;;4995011;28;20218;-72
2023/07/18 15:55:16;;;;;;;5.53;3.50;;;;;;;;;;4994977;28;20175;-73
2023/07/18 15:58:20;;;;;;;9.45;3.78;;;;;;;;;;4983166;28;20629;-73
2023/07/18 16:01:24;;;;;;;8.55;3.78;;;;;;;;;;4983118;28;20217;-72
2023/07/18 16:04:28;;;;;;;4.97;3.70;;;;;;;;;;4994779;28;20175;-72
2023/07/18 16:07:33;;;;;;;9.07;3.58;;;;;;;;;;4983238;28;20638;-72
2023/07/18 16:10:37;;;;;;;8.45;3.60;;;;;;;;;;4995179;28;20182;-72
2023/07/18 16:13:43;;;;;;;5.07;3.72;;;;;;;;;;4982826;28;20214;-72
2023/07/18 16:16:48;;;;;;;6.35;3.55;;;;;;;;;;4994561;28;20205;-73
2023/07/18 16:19:54;;;;;;;6.22;3.70;;;;;;;;;;4995007;28;20676;-72
2023/07/18 16:22:58;;;;;;;5.50;3.80;;;;;;;;;;4994761;28;20182;-73
2023/07/18 16:26:02;;;;;;;7.57;3.63;;;;;;;;;;4994752;28;20184;-72
2023/07/18 16:29:06;;;;;;;6.60;3.75;;;;;;;;;;4994344;28;20184;-72
2023/07/18 16:32:10;;;;;;;6.47;4.07;;;;;;;;;;4994406;28;20218;-72
2023/07/18 16:35:14;;;;;;;5.85;3.78;;;;;;;;;;4994517;28;20181;-72
2023/07/18 16:38:20;;;;;;;7.10;3.88;;;;;;;;;;4994723;28;20200;-73
2023/07/18 16:41:24;;;;;;;5.28;3.30;;;;;;;;;;4994151;28;20235;-72
2023/07/18 16:44:28;;;;;;;7.03;3.72;;;;;;;;;;4994078;28;20177;-72
2023/07/18 16:47:32;;;;;;;8.07;3.60;;;;;;;;;;4994157;28;20644;-73
2023/07/18 16:50:36;;;;;;;5.35;3.67;;;;;;;;;;4993998;28;20182;-72
2023/07/18 16:53:40;;;;;;;4.47;3.75;;;;;;;;;;4982316;28;20209;-72
2023/07/18 16:56:44;;;;;;;9.43;4.35;;;;;;;;;;4993931;28;20624;-72
2023/07/18 16:59:48;;;;;;;5.43;3.05;;;;;;;;;;4994010;28;20185;-72
2023/07/18 17:02:52;;;;;;;4.72;3.55;;;;;;;;;;4994485;28;20186;-72
2023/07/18 17:05:57;;;;;;;8.90;3.55;;;;;;;;;;4982154;28;20517;-72
2023/07/18 17:09:00;;;;;;;9.07;4.57;;;;;;;;;;4971231;28;20189;-72
2023/07/18 17:12:05;;;;;;;6.70;4.05;;;;;;;;;;4993656;28;20565;-72
2023/07/18 17:15:09;;;;;;;7.30;4.07;;;;;;;;;;4993640;28;20209;-72
2023/07/18 17:18:14;;;;;;;9.13;4.35;;;;;;;;;;4982260;28;20664;-73
2023/07/18 17:21:18;;;;;;;6.82;3.95;;;;;;;;;;4993812;28;20224;-72
2023/07/18 17:24:22;;;;;;;9.38;3.78;;;;;;;;;;4994414;28;20184;-73
2023/07/18 17:27:27;;;;;;;8.90;4.10;;;;;;;;;;4981694;28;20183;-72
2023/07/18 17:30:32;;;;;;;8.40;3.65;;;;;;;;;;4993770;28;20530;-73
2023/07/18 17:33:36;;;;;;;5.60;3.70;;;;;;;;;;4993441;28;20208;-72
2023/07/18 17:36:40;;;;;;;9.18;4.13;;;;;;;;;;4981944;28;20176;-72
2023/07/18 17:39:46;;;;;;;10.32;3.90;;;;;;;;;;4993409;28;20200;-72
2023/07/18 17:42:50;;;;;;;5.28;4.00;;;;;;;;;;4981488;28;20188;-72
2023/07/18 17:45:54;;;;;;;11.30;4.10;;;;;;;;;;4981716;28;20195;-72
2023/07/18 17:48:58;;;;;;;6.10;3.65;;;;;;;;;;4981699;28;20183;-72
2023/07/18 17:52:02;;;;;;;9.60;4.25;;;;;;;;;;4993760;28;20213;-72
2023/07/18 17:55:09;;;;;;;6.35;3.83;;;;;;;;;;4993316;28;20547;-73
2023/07/18 17:58:13;;;;;;;7.30;4.15;;;;;;;;;;4984654;28;20176;-72
2023/07/18 18:01:17;;;;;;;10.52;4.40;;;;;;;;;;4997012;28;20213;-73
2023/07/18 18:04:21;;;;;;;8.18;3.90;;;;;;;;;;4997495;28;20175;-72
2023/07/18 18:07:25;;;;;;;6.57;3.70;;;;;;;;;;4984933;28;20183;-71
2023/07/18 18:10:29;;;;;;;6.50;3.78;;;;;;;;;;4996927;28;20186;-72
2023/07/18 18:13:34;;;;;;;7.00;3.95;;;;;;;;;;4997361;28;20188;-72
2023/07/18 18:16:38;;;;;;;8.43;3.97;;;;;;;;;;4996848;28;20182;-72
2023/07/18 18:19:42;;;;;;;7.53;4.10;;;;;;;;;;4985109;28;20196;-72
2023/07/18 18:22:46;;;;;;;7.75;4.40;;;;;;;;;;4996727;28;20215;-72
2023/07/18 18:25:50;;;;;;;7.63;3.95;;;;;;;;;;4985272;28;20186;-73
2023/07/18 18:28:54;;;;;;;7.55;3.88;;;;;;;;;;4973860;28;20186;-72